< < Back
Terminal Aerodrome Forecast


Current Version              Previous Versions:   1  2  3  4  5  6  7  8  9  

Terminal Aerodrome Forecast

484
FTUS42 KCAE 061136
TAFAGS
TAF
KAGS 061136Z 0612/0712 VRB05KT P6SM FEW060
     FM061400 32010G16KT P6SM SCT060
     FM062300 31008KT P6SM SCT060
     FM070300 32005KT P6SM SCT060=



Latest METAR

150
SAUS70 KWBC 061500 RRC
MTRAGS
METAR KAGS 061453Z 32009G16KT 10SM CLR 18/07 A2987 RMK AO2 SLP115
T01830067 50010


USA.gov is the U.S. government's official web portal to all federal, state and local government web resources and services.